Time;durP1;ratioP1;P1;durP2;ratioP2;P2;SDS_P1;SDS_P2;PMS_P1;PMS_P2;Temp;Humidity;BMP_temperature;BMP_pressure;BME280_temperature;BME280_humidity;BME280_pressure;Samples;Min_cycle;Max_cycle;Signal;HPM_P1;HPM_P2
2022/08/24 00:00:37;;;;;;;6.85;3.00;;;;;;;24.70;52.09;101623.56;5029002;28;20088;-62
2022/08/24 00:03:06;;;;;;;6.05;2.63;;;;;;;24.69;52.03;101618.34;5026431;28;20046;-61
2022/08/24 00:05:35;;;;;;;4.30;2.60;;;;;;;24.68;52.13;101617.53;5026530;28;20492;-61
2022/08/24 00:08:03;;;;;;;5.18;2.78;;;;;;;24.67;52.30;101613.97;5026440;28;20045;-61
2022/08/24 00:10:31;;;;;;;4.43;2.40;;;;;;;24.59;52.18;101609.16;5025989;28;20067;-61
2022/08/24 00:12:59;;;;;;;4.75;2.28;;;;;;;24.64;52.13;101614.56;5025732;28;20085;-61
2022/08/24 00:15:27;;;;;;;3.85;2.90;;;;;;;24.64;52.30;101622.81;5026515;28;20569;-61
2022/08/24 00:17:55;;;;;;;4.85;2.30;;;;;;;24.62;52.40;101625.03;5026066;28;20049;-61
2022/08/24 00:20:23;;;;;;;4.15;2.75;;;;;;;24.60;52.25;101623.72;5026278;28;20389;-61
2022/08/24 00:22:52;;;;;;;3.88;2.85;;;;;;;24.57;52.31;101614.13;5026047;28;20074;-61
2022/08/24 00:25:20;;;;;;;5.00;2.72;;;;;;;24.56;52.49;101628.97;5040279;28;20081;-62
2022/08/24 00:27:48;;;;;;;4.85;2.70;;;;;;;24.54;52.65;101624.91;5045626;28;20092;-61
2022/08/24 00:30:18;;;;;;;5.25;2.97;;;;;;;24.51;52.57;101633.72;5045846;28;20049;-62
2022/08/24 00:32:48;;;;;;;3.10;2.50;;;;;;;24.50;52.77;101630.16;5037628;28;20049;-62
2022/08/24 00:35:18;;;;;;;3.53;2.50;;;;;;;24.49;52.73;101633.22;5026085;28;20519;-62
2022/08/24 00:37:48;;;;;;;4.85;3.28;;;;;;;24.46;53.05;101629.13;5025980;28;20618;-62
2022/08/24 00:40:20;;;;;;;5.55;2.58;;;;;;;24.45;52.88;101640.41;5026118;28;20046;-61
2022/08/24 00:42:49;;;;;;;4.88;3.20;;;;;;;24.43;53.23;101634.41;5025778;28;20084;-62
2022/08/24 00:45:18;;;;;;;4.88;2.92;;;;;;;24.40;53.33;101634.97;5026059;28;20096;-61
2022/08/24 00:47:49;;;;;;;3.58;2.65;;;;;;;24.38;53.31;101631.72;5025625;28;20077;-61
2022/08/24 00:50:21;;;;;;;4.47;3.17;;;;;;;24.37;53.70;101628.16;5026383;28;20078;-61
2022/08/24 00:52:52;;;;;;;5.15;3.90;;;;;;;24.34;53.33;101626.81;5025845;28;20049;-61
2022/08/24 00:55:26;;;;;;;7.05;3.55;;;;;;;24.32;53.23;101634.53;5026068;28;20061;-62
2022/08/24 00:57:57;;;;;;;4.47;3.65;;;;;;;24.31;53.77;101637.56;5025506;28;20046;-61
2022/08/24 01:00:30;;;;;;;6.95;3.50;;;;;;;24.29;53.65;101639.78;5026091;28;20050;-62
2022/08/24 01:03:03;;;;;;;6.80;4.07;;;;;;;24.25;54.17;101641.50;5025623;28;20064;-61
2022/08/24 01:05:31;;;;;;;5.78;3.85;;;;;;;24.23;53.90;101640.97;5026008;28;20046;-61
2022/08/24 01:08:00;;;;;;;6.43;3.95;;;;;;;24.22;53.86;101642.09;5025981;28;20050;-61
2022/08/24 01:10:33;;;;;;;5.85;3.70;;;;;;;24.21;54.37;101640.44;5025462;28;20058;-62
2022/08/24 01:13:04;;;;;;;6.28;3.80;;;;;;;24.19;53.89;101637.19;5025203;28;20088;-61
2022/08/24 01:15:35;;;;;;;5.80;4.03;;;;;;;24.17;54.29;101639.41;5038406;28;20076;-61
2022/08/24 01:20:56;;;;;;;7.28;4.72;;;;;;;24.15;54.48;101633.38;5045445;28;20057;-61
2022/08/24 01:23:36;;;;;;;4.85;3.75;;;;;;;24.16;54.34;101640.50;5048420;28;20080;-61
2022/08/24 01:26:04;;;;;;;6.68;4.15;;;;;;;24.15;54.32;101641.63;5029197;28;20049;-61
2022/08/24 01:28:35;;;;;;;7.20;4.38;;;;;;;24.14;53.98;101643.56;5029608;28;20480;-61
2022/08/24 01:31:04;;;;;;;7.28;4.25;;;;;;;24.14;54.01;101640.00;5029344;28;20113;-61
2022/08/24 01:33:32;;;;;;;6.53;4.20;;;;;;;24.12;54.14;101645.78;5029100;28;20136;-61
2022/08/24 01:36:04;;;;;;;9.18;4.75;;;;;;;24.11;53.92;101640.56;5029578;28;20049;-61
2022/08/24 01:38:34;;;;;;;6.45;4.15;;;;;;;24.10;54.33;101639.75;5029270;28;20097;-61
2022/08/24 01:41:04;;;;;;;9.88;5.80;;;;;;;24.10;54.50;101638.94;5028902;28;20110;-61
2022/08/24 01:43:32;;;;;;;5.97;4.28;;;;;;;24.07;54.54;101632.09;5028904;28;20080;-61
2022/08/24 01:46:04;;;;;;;5.10;4.03;;;;;;;24.06;54.34;101630.47;5037726;28;20046;-61
2022/08/24 01:48:32;;;;;;;7.18;4.10;;;;;;;24.04;54.08;101627.19;5048385;28;20105;-62
2022/08/24 01:50:59;;;;;;;5.75;4.30;;;;;;;24.04;54.23;101632.69;5048817;28;20088;-61
2022/08/24 01:53:27;;;;;;;9.32;5.25;;;;;;;24.02;54.04;101622.00;5048395;28;20427;-61
2022/08/24 01:55:56;;;;;;;7.82;4.22;;;;;;;24.02;54.21;101634.91;5029587;28;20534;-61
2022/08/24 01:58:24;;;;;;;5.93;4.20;;;;;;;24.01;54.50;101636.84;5028692;28;20073;-61
2022/08/24 02:00:52;;;;;;;4.68;4.03;;;;;;;23.99;54.14;101630.81;5028968;28;20412;-61
2022/08/24 02:03:21;;;;;;;8.07;4.60;;;;;;;23.98;54.70;101625.63;5028531;28;20053;-62
2022/08/24 02:05:57;;;;;;;8.32;4.72;;;;;;;23.97;54.52;101627.56;5028837;28;20056;-61
2022/08/24 02:08:25;;;;;;;8.98;4.88;;;;;;;23.96;54.43;101636.91;5028197;28;20050;-61
2022/08/24 02:10:53;;;;;;;6.90;4.50;;;;;;;23.94;54.32;101630.88;5028675;28;20045;-61
2022/08/24 02:13:27;;;;;;;7.38;4.65;;;;;;;23.92;54.33;101627.63;5028200;28;20080;-61
2022/08/24 02:15:55;;;;;;;9.48;4.60;;;;;;;23.92;54.68;101627.63;5028575;28;20050;-61
2022/08/24 02:18:23;;;;;;;8.63;5.97;;;;;;;23.89;54.67;101630.94;5044782;28;20049;-61
2022/08/24 02:20:52;;;;;;;6.70;4.45;;;;;;;23.87;54.67;101626.84;5041444;28;20061;-61
2022/08/24 02:23:19;;;;;;;8.25;4.25;;;;;;;23.84;54.63;101636.50;5028069;28;20076;-62
2022/08/24 02:25:47;;;;;;;7.75;4.25;;;;;;;23.84;54.68;101627.44;5028388;28;20073;-61
2022/08/24 02:28:15;;;;;;;6.15;4.32;;;;;;;23.82;55.01;101629.66;5027917;28;20104;-61
2022/08/24 02:30:44;;;;;;;4.70;4.18;;;;;;;23.80;54.61;101629.13;5028306;28;20074;-61
2022/08/24 02:33:12;;;;;;;10.40;5.15;;;;;;;23.78;54.74;101640.41;5027898;28;20061;-61
2022/08/24 02:35:41;;;;;;;7.20;5.38;;;;;;;23.77;54.75;101641.50;5028470;28;20102;-61
2022/08/24 02:38:08;;;;;;;6.47;4.65;;;;;;;23.74;54.63;101633.84;5028059;28;20057;-61
2022/08/24 02:40:37;;;;;;;5.78;4.47;;;;;;;23.74;55.08;101644.84;5034314;28;20041;-61
2022/08/24 02:43:05;;;;;;;8.98;5.40;;;;;;;23.72;55.20;101647.06;5046707;28;20077;-61
2022/08/24 02:45:37;;;;;;;6.22;4.78;;;;;;;23.70;55.54;101643.78;5047923;28;20056;-61
2022/08/24 02:48:06;;;;;;;7.13;5.05;;;;;;;23.68;54.99;101640.50;5047475;28;20088;-61
2022/08/24 02:50:38;;;;;;;8.65;5.90;;;;;;;23.68;55.13;101646.00;5047837;28;20080;-61
2022/08/24 02:53:06;;;;;;;7.72;5.20;;;;;;;23.66;55.46;101650.97;5030786;28;20046;-61
2022/08/24 02:55:34;;;;;;;5.68;4.50;;;;;;;23.63;55.25;101643.31;5027817;28;20060;-61
2022/08/24 02:58:02;;;;;;;6.68;4.78;;;;;;;23.60;55.32;101647.44;5027288;28;20081;-61
2022/08/24 03:00:30;;;;;;;6.20;4.72;;;;;;;23.59;55.37;101637.56;5027611;28;20084;-61
2022/08/24 03:02:57;;;;;;;7.28;4.30;;;;;;;23.58;55.42;101637.88;5042183;28;20081;-61
2022/08/24 03:05:27;;;;;;;8.82;5.20;;;;;;;23.56;55.41;101640.91;5047602;28;20049;-61
2022/08/24 03:07:56;;;;;;;7.88;4.82;;;;;;;23.55;55.64;101641.19;5047196;28;20483;-61
2022/08/24 03:10:25;;;;;;;6.78;4.65;;;;;;;23.55;55.41;101643.94;5035208;28;20093;-61
2022/08/24 03:12:53;;;;;;;7.95;5.60;;;;;;;23.52;55.43;101634.31;5026853;28;20084;-61
2022/08/24 03:15:25;;;;;;;6.35;4.40;;;;;;;23.51;55.44;101634.63;5027536;28;20050;-61
2022/08/24 03:17:53;;;;;;;9.23;4.68;;;;;;;23.50;55.37;101632.97;5027279;28;20105;-61
2022/08/24 03:20:22;;;;;;;8.13;4.57;;;;;;;23.49;55.32;101637.66;5027385;28;20073;-61
2022/08/24 03:22:52;;;;;;;7.90;4.90;;;;;;;23.46;55.42;101637.41;5027197;28;20088;-62
2022/08/24 03:25:23;;;;;;;7.72;4.93;;;;;;;23.48;55.39;101637.94;5027323;28;20080;-61
2022/08/24 03:27:51;;;;;;;6.32;4.55;;;;;;;23.47;55.90;101641.78;5026659;28;20086;-61
2022/08/24 03:30:20;;;;;;;6.55;4.68;;;;;;;23.45;55.51;101636.59;5027378;28;20522;-61
2022/08/24 03:32:48;;;;;;;6.70;4.60;;;;;;;23.44;55.58;101636.88;5026846;28;20074;-62
2022/08/24 03:35:16;;;;;;;10.20;4.45;;;;;;;23.43;55.42;101635.25;5027110;28;20054;-61
2022/08/24 03:37:44;;;;;;;7.70;4.63;;;;;;;23.42;55.65;101641.84;5027115;28;20116;-62
2022/08/24 03:40:15;;;;;;;5.80;4.20;;;;;;;23.40;55.51;101635.81;5027013;28;20077;-62
2022/08/24 03:42:52;;;;;;;6.15;4.30;;;;;;;23.39;55.34;101632.25;5026419;28;20069;-61
2022/08/24 03:45:20;;;;;;;7.00;4.50;;;;;;;23.37;55.16;101629.81;5026457;28;20092;-61
2022/08/24 03:47:48;;;;;;;9.02;5.18;;;;;;;23.37;55.44;101637.22;5026812;28;20088;-61
2022/08/24 03:50:16;;;;;;;7.18;6.30;;;;;;;23.35;55.51;101639.44;5026772;28;20074;-61
2022/08/24 03:52:44;;;;;;;6.72;5.28;;;;;;;23.35;55.46;101633.94;5026630;28;20127;-61
2022/08/24 03:55:12;;;;;;;7.47;5.05;;;;;;;23.33;55.37;101634.22;5026783;28;20092;-61
2022/08/24 03:57:41;;;;;;;7.65;5.05;;;;;;;23.32;55.94;101635.34;5026314;28;20100;-61
2022/08/24 04:00:11;;;;;;;9.30;4.90;;;;;;;23.30;55.55;101631.25;5027065;28;20121;-61
2022/08/24 04:02:39;;;;;;;5.95;4.55;;;;;;;23.29;55.80;101629.59;5026943;28;20100;-61
2022/08/24 04:05:07;;;;;;;7.53;5.25;;;;;;;23.26;55.82;101628.25;5026235;28;20114;-61
2022/08/24 04:07:35;;;;;;;7.93;5.28;;;;;;;23.27;56.13;101634.56;5046041;28;20080;-61
2022/08/24 04:10:03;;;;;;;6.28;4.65;;;;;;;23.23;55.83;101633.50;5045421;28;20056;-61
2022/08/24 04:12:31;;;;;;;10.05;5.43;;;;;;;23.24;56.11;101633.22;5045170;28;20049;-61
2022/08/24 04:15:00;;;;;;;7.40;4.93;;;;;;;23.21;55.70;101636.53;5045525;28;20107;-61
2022/08/24 04:17:29;;;;;;;7.18;4.75;;;;;;;23.20;56.04;101639.56;5025909;28;20050;-62
2022/08/24 04:19:59;;;;;;;9.05;5.47;;;;;;;23.19;55.85;101646.97;5026293;28;20050;-61
2022/08/24 04:22:29;;;;;;;8.80;4.55;;;;;;;23.16;56.10;101642.06;5026127;28;20077;-61
2022/08/24 04:24:57;;;;;;;8.55;5.10;;;;;;;23.16;56.09;101641.25;5026573;28;20081;-61
2022/08/24 04:27:25;;;;;;;8.88;5.57;;;;;;;23.16;56.33;101646.72;5025901;28;20061;-61
2022/08/24 04:29:53;;;;;;;6.88;5.28;;;;;;;23.13;55.75;101645.38;5026362;28;20052;-61
2022/08/24 04:32:22;;;;;;;7.95;5.38;;;;;;;23.10;56.40;101647.88;5025800;28;20583;-61
2022/08/24 04:34:50;;;;;;;6.18;4.68;;;;;;;23.10;56.37;101645.94;5025455;28;20054;-61
2022/08/24 04:37:17;;;;;;;8.68;4.70;;;;;;;23.09;56.14;101648.97;5024993;28;20081;-61
2022/08/24 04:39:54;;;;;;;7.68;4.85;;;;;;;23.05;56.29;101646.81;5026130;28;20100;-62
2022/08/24 04:42:22;;;;;;;5.93;4.50;;;;;;;23.05;56.01;101648.72;5025197;28;20054;-62
2022/08/24 04:44:52;;;;;;;8.50;5.90;;;;;;;23.03;56.15;101651.75;5025668;28;20137;-61
2022/08/24 04:47:19;;;;;;;7.82;5.55;;;;;;;23.02;56.13;101652.03;5025903;28;20492;-61
2022/08/24 04:49:48;;;;;;;7.70;4.82;;;;;;;23.00;56.38;101654.25;5025794;28;20046;-61
2022/08/24 04:52:17;;;;;;;7.00;4.68;;;;;;;23.00;56.24;101659.72;5025991;28;20365;-61
2022/08/24 04:54:44;;;;;;;6.25;4.88;;;;;;;22.99;56.12;101658.09;5025948;28;20073;-61
2022/08/24 04:57:12;;;;;;;7.88;5.35;;;;;;;22.96;56.03;101666.88;5026812;28;20081;-61
2022/08/24 04:59:45;;;;;;;8.82;5.13;;;;;;;22.95;55.99;101657.03;5030080;28;20054;-61
2022/08/24 05:02:13;;;;;;;6.00;4.47;;;;;;;22.94;56.22;101664.44;5037237;28;20056;-61
2022/08/24 05:04:40;;;;;;;8.60;6.50;;;;;;;22.91;56.29;101662.25;5049415;28;20057;-61
2022/08/24 05:07:09;;;;;;;6.55;5.03;;;;;;;22.90;55.77;101670.75;5042983;28;20085;-61
2022/08/24 05:09:37;;;;;;;6.53;5.38;;;;;;;22.89;56.24;101669.13;5029367;28;20488;-61
2022/08/24 05:12:06;;;;;;;7.20;5.22;;;;;;;22.88;56.27;101665.56;5046827;28;20045;-61
2022/08/24 05:14:33;;;;;;;7.53;4.82;;;;;;;22.87;56.02;101663.09;5039964;28;20045;-61
2022/08/24 05:17:01;;;;;;;7.25;5.22;;;;;;;22.88;56.32;101672.97;5029348;28;20081;-61
2022/08/24 05:19:29;;;;;;;8.30;4.78;;;;;;;22.85;56.40;101671.63;5029626;28;20046;-61
2022/08/24 05:21:57;;;;;;;9.07;5.30;;;;;;;22.84;56.28;101677.38;5029404;28;20069;-61
2022/08/24 05:24:27;;;;;;;6.63;4.68;;;;;;;22.83;56.35;101675.75;5043800;28;20076;-60
2022/08/24 05:26:54;;;;;;;9.73;5.38;;;;;;;22.82;56.16;101672.19;5049132;28;20075;-60
2022/08/24 05:29:22;;;;;;;5.60;4.90;;;;;;;22.81;56.01;101675.22;5049137;28;20053;-61
2022/08/24 05:31:50;;;;;;;6.80;4.72;;;;;;;22.80;56.26;101674.38;5049118;28;20073;-61
2022/08/24 05:34:18;;;;;;;9.88;5.03;;;;;;;22.78;56.26;101679.31;5047786;28;20057;-62
2022/08/24 05:36:46;;;;;;;7.95;5.10;;;;;;;22.78;56.14;101683.97;5049063;28;20408;-63
2022/08/24 05:39:14;;;;;;;9.85;5.45;;;;;;;22.77;56.08;101688.63;5048993;28;20046;-61
2022/08/24 05:41:45;;;;;;;6.43;5.15;;;;;;;22.74;56.50;101684.53;5031706;28;20085;-63
2022/08/24 05:44:15;;;;;;;8.32;5.43;;;;;;;22.75;56.30;101690.84;5029106;28;20073;-61
2022/08/24 05:46:43;;;;;;;8.93;5.47;;;;;;;22.73;56.28;101693.84;5028866;28;20081;-63
2022/08/24 05:49:11;;;;;;;8.73;6.00;;;;;;;22.73;56.23;101687.56;5047817;28;20100;-62
2022/08/24 05:51:41;;;;;;;8.95;6.10;;;;;;;22.73;56.63;101685.63;5041361;28;20046;-62
2022/08/24 05:54:09;;;;;;;8.48;5.57;;;;;;;22.73;56.29;101684.81;5028836;28;20136;-63
2022/08/24 05:56:36;;;;;;;8.80;5.50;;;;;;;22.72;56.20;101692.22;5028563;28;20117;-60
2022/08/24 05:59:06;;;;;;;8.07;5.88;;;;;;;22.65;56.53;101661.56;5041315;28;20053;-60
2022/08/24 06:01:34;;;;;;;11.10;6.50;;;;;;;22.72;56.31;101688.66;5048531;28;20045;-61
2022/08/24 06:04:02;;;;;;;8.23;5.15;;;;;;;22.74;56.51;101673.56;5048487;28;20060;-60
2022/08/24 06:06:30;;;;;;;6.68;5.15;;;;;;;22.76;56.28;101681.50;5034000;28;20077;-61
2022/08/24 06:08:59;;;;;;;8.80;5.03;;;;;;;22.80;56.50;101681.78;5027936;28;20057;-60
2022/08/24 06:11:29;;;;;;;7.63;4.75;;;;;;;22.82;56.51;101685.88;5028203;28;20042;-60
2022/08/24 06:14:00;;;;;;;6.35;4.72;;;;;;;22.85;56.36;101685.31;5033224;28;20140;-60
2022/08/24 06:16:29;;;;;;;9.98;5.20;;;;;;;22.89;56.09;101688.31;5048228;28;20406;-61
2022/08/24 06:18:57;;;;;;;6.30;4.45;;;;;;;22.91;56.15;101689.66;5048277;28;20053;-60
2022/08/24 06:21:27;;;;;;;7.85;4.75;;;;;;;22.94;55.86;101693.78;5048225;28;20049;-60
2022/08/24 06:23:56;;;;;;;10.13;4.70;;;;;;;22.97;56.29;101695.94;5046840;28;20073;-61
2022/08/24 06:29:11;;;;;;;8.93;4.40;;;;;;;23.00;56.01;101700.84;5047032;28;20053;-60
2022/08/24 06:31:43;;;;;;;9.48;4.50;;;;;;;22.98;55.83;101703.88;5047760;28;20053;-61
2022/08/24 06:34:14;;;;;;;8.25;4.85;;;;;;;22.98;55.96;101700.31;5047728;28;20053;-60
2022/08/24 06:36:42;;;;;;;5.82;4.55;;;;;;;22.97;55.90;101706.91;5048102;28;20049;-61
2022/08/24 06:39:10;;;;;;;6.50;4.38;;;;;;;22.96;56.22;101706.09;5029104;28;20049;-60
2022/08/24 06:41:39;;;;;;;6.00;4.10;;;;;;;22.94;56.06;101704.72;5027570;28;20050;-60
2022/08/24 06:44:07;;;;;;;7.95;4.38;;;;;;;22.93;56.35;101709.41;5027814;28;20053;-61
2022/08/24 06:46:36;;;;;;;9.27;4.35;;;;;;;22.91;56.19;101716.25;5027837;28;20057;-60
2022/08/24 06:49:05;;;;;;;6.32;4.30;;;;;;;22.90;56.25;101711.88;5028345;28;20046;-60
2022/08/24 06:51:32;;;;;;;7.78;4.47;;;;;;;22.89;56.33;101727.50;5027627;28;20507;-60
2022/08/24 06:54:00;;;;;;;7.20;4.18;;;;;;;22.87;56.33;101717.94;5027472;28;20077;-60
2022/08/24 06:56:28;;;;;;;6.18;3.88;;;;;;;22.87;56.49;101720.69;5028009;28;20057;-60
2022/08/24 06:58:56;;;;;;;6.70;4.05;;;;;;;22.87;56.27;101723.41;5027882;28;20112;-60
2022/08/24 07:01:26;;;;;;;9.48;4.85;;;;;;;22.86;56.27;101721.78;5027439;28;20076;-60
2022/08/24 07:03:54;;;;;;;7.00;4.38;;;;;;;22.85;56.88;101720.97;5027755;28;20049;-61
2022/08/24 07:06:25;;;;;;;7.18;4.20;;;;;;;22.87;56.79;101723.41;5027543;28;20056;-60
2022/08/24 07:08:55;;;;;;;6.13;4.00;;;;;;;22.79;56.43;101711.13;5027275;28;20058;-61
2022/08/24 07:11:24;;;;;;;7.90;4.68;;;;;;;22.87;56.62;101721.50;5027466;28;20046;-61
2022/08/24 07:13:52;;;;;;;8.48;4.57;;;;;;;22.88;56.80;101723.13;5027202;28;20049;-60
2022/08/24 07:16:20;;;;;;;7.90;4.85;;;;;;;22.89;56.67;101726.69;5027251;28;20050;-60
2022/08/24 07:18:49;;;;;;;6.72;4.07;;;;;;;22.91;56.85;101727.22;5027365;28;20268;-60
2022/08/24 07:21:18;;;;;;;10.32;4.95;;;;;;;22.90;56.73;101723.66;5026743;28;20049;-60
2022/08/24 07:23:48;;;;;;;6.28;4.75;;;;;;;22.87;56.73;101720.69;5029375;28;20069;-60
2022/08/24 07:26:19;;;;;;;6.80;3.85;;;;;;;22.92;56.56;101724.22;5046968;28;20045;-61
2022/08/24 07:28:49;;;;;;;8.50;4.30;;;;;;;22.94;56.97;101732.16;5046856;28;20108;-61
2022/08/24 07:31:17;;;;;;;8.13;4.15;;;;;;;22.93;56.81;101734.06;5046819;28;20056;-61
2022/08/24 07:33:44;;;;;;;5.47;4.30;;;;;;;22.95;56.94;101733.78;5045452;28;20053;-61
2022/08/24 07:36:13;;;;;;;6.00;4.35;;;;;;;22.97;56.96;101731.59;5047129;28;20053;-61
2022/08/24 07:38:51;;;;;;;7.45;3.95;;;;;;;22.98;57.12;101734.03;5046864;28;20060;-61
2022/08/24 07:41:20;;;;;;;5.70;3.97;;;;;;;22.99;56.71;101737.59;5046606;28;20078;-61
2022/08/24 07:44:08;;;;;;;5.72;4.05;;;;;;;22.99;57.16;101732.94;5035531;28;20053;-61
2022/08/24 07:46:36;;;;;;;5.63;3.22;;;;;;;23.01;56.64;101735.41;5026700;28;20046;-60
2022/08/24 07:49:04;;;;;;;5.57;3.55;;;;;;;23.03;57.08;101733.19;5026835;28;20377;-60
2022/08/24 07:51:47;;;;;;;7.28;4.00;;;;;;;23.03;56.97;101733.19;5026725;28;20077;-61
2022/08/24 07:54:16;;;;;;;6.60;3.80;;;;;;;23.05;57.25;101722.75;5026383;28;20061;-61
2022/08/24 07:56:44;;;;;;;7.78;3.90;;;;;;;23.03;57.20;101728.53;5026316;28;20082;-60
2022/08/24 07:59:12;;;;;;;6.45;3.50;;;;;;;23.07;57.10;101727.97;5039386;28;20496;-61
2022/08/24 08:01:40;;;;;;;7.60;4.05;;;;;;;23.08;56.95;101722.19;5046408;28;20046;-61
2022/08/24 08:04:09;;;;;;;5.60;3.97;;;;;;;23.10;57.12;101732.88;5030062;28;20053;-61
2022/08/24 08:06:37;;;;;;;7.68;3.78;;;;;;;23.11;57.16;101729.03;5026535;28;20081;-61
2022/08/24 08:09:05;;;;;;;7.10;3.80;;;;;;;23.11;56.82;101731.78;5037460;28;20054;-62
2022/08/24 08:11:34;;;;;;;6.63;3.83;;;;;;;23.13;56.89;101732.31;5045797;28;20103;-62
2022/08/24 08:14:02;;;;;;;6.25;3.97;;;;;;;23.14;57.08;101736.69;5046146;28;20053;-61
2022/08/24 08:16:29;;;;;;;6.95;3.83;;;;;;;23.15;56.74;101733.66;5046091;28;20046;-61
2022/08/24 08:18:57;;;;;;;7.47;4.70;;;;;;;23.15;56.68;101736.41;5029057;28;20046;-61
2022/08/24 08:24:27;;;;;;;6.70;4.47;;;;;;;23.19;57.06;101742.97;5026172;28;20054;-61
2022/08/24 08:26:58;;;;;;;5.60;3.60;;;;;;;23.20;56.66;101741.03;5025996;28;20137;-62
2022/08/24 08:29:26;;;;;;;8.23;4.43;;;;;;;23.21;56.77;101740.75;5026289;28;20411;-61
2022/08/24 08:31:54;;;;;;;11.13;4.95;;;;;;;23.22;56.63;101739.66;5025943;28;20129;-61
2022/08/24 08:34:22;;;;;;;7.53;4.25;;;;;;;23.24;57.02;101734.69;5043909;28;20049;-61
2022/08/24 08:36:50;;;;;;;7.00;3.88;;;;;;;23.25;56.87;101741.81;5045877;28;20109;-61
2022/08/24 08:39:20;;;;;;;5.43;3.90;;;;;;;23.29;57.47;101736.59;5044012;28;20084;-61
2022/08/24 08:42:18;;;;;;;6.82;4.22;;;;;;;23.30;57.38;101736.28;5025981;28;20069;-62
2022/08/24 08:45:00;;;;;;;6.22;4.40;;;;;;;23.32;57.05;101734.09;5040411;28;20077;-61
2022/08/24 08:47:51;;;;;;;6.10;4.22;;;;;;;23.35;57.04;101744.50;5045634;28;20049;-62
2022/08/24 08:50:24;;;;;;;7.25;4.03;;;;;;;23.37;57.19;101747.75;5044421;28;20050;-61
2022/08/24 08:53:27;;;;;;;10.32;4.85;;;;;;;23.40;57.28;101742.81;5025730;28;20109;-62
2022/08/24 08:56:05;;;;;;;8.93;4.13;;;;;;;23.41;56.80;101742.53;5025943;28;20049;-61
2022/08/24 08:58:55;;;;;;;6.65;3.97;;;;;;;23.44;56.80;101739.22;5038756;28;20157;-61
2022/08/24 09:01:31;;;;;;;5.90;3.92;;;;;;;23.47;56.89;101740.56;5045551;28;20049;-61
2022/08/24 09:04:17;;;;;;;8.90;4.78;;;;;;;23.48;57.29;101732.03;5045588;28;20060;-61
2022/08/24 09:07:00;;;;;;;7.57;4.43;;;;;;;23.52;57.61;101738.59;5038558;28;20046;-61
2022/08/24 09:09:44;;;;;;;7.53;4.05;;;;;;;23.56;57.32;101741.63;5025556;28;20086;-61
2022/08/24 09:12:22;;;;;;;6.90;4.20;;;;;;;23.58;57.58;101739.41;5025496;28;20082;-62
2022/08/24 09:15:09;;;;;;;6.28;3.70;;;;;;;23.65;57.46;101753.63;5025525;28;20118;-61
2022/08/24 09:17:59;;;;;;;7.65;4.43;;;;;;;23.67;57.30;101745.91;5025445;28;20049;-61
2022/08/24 09:20:46;;;;;;;5.25;3.67;;;;;;;23.71;57.42;101744.22;5025779;28;20054;-61
2022/08/24 09:23:25;;;;;;;7.25;3.90;;;;;;;23.75;57.82;101745.28;5025594;28;20057;-61
2022/08/24 09:26:02;;;;;;;6.35;4.53;;;;;;;23.79;57.38;101746.34;5026019;28;20077;-62
2022/08/24 09:28:42;;;;;;;9.60;4.20;;;;;;;23.83;57.54;101746.59;5025311;28;20061;-61
2022/08/24 09:31:32;;;;;;;7.57;4.22;;;;;;;23.83;57.66;101744.66;5025706;28;20081;-61
2022/08/24 09:34:17;;;;;;;8.18;3.47;;;;;;;23.91;57.31;101745.97;5025598;28;20058;-61
2022/08/24 09:36:53;;;;;;;5.32;3.90;;;;;;;23.96;57.29;101741.25;5025627;28;20113;-61
2022/08/24 09:39:47;;;;;;;5.60;3.40;;;;;;;24.01;57.62;101745.88;5025517;28;20129;-61
2022/08/24 09:42:57;;;;;;;5.68;3.47;;;;;;;24.07;57.38;101743.88;5025245;28;20180;-61
2022/08/24 09:45:43;;;;;;;6.68;3.38;;;;;;;24.10;57.15;101746.06;4972172;28;20050;-61
2022/08/24 09:48:56;;;;;;;5.83;3.20;;;;;;;24.13;57.29;101743.53;4987434;28;20078;-61
2022/08/24 09:51:55;;;;;;;4.32;2.90;;;;;;;24.16;56.93;101739.41;4987187;28;20078;-61
2022/08/24 09:54:58;;;;;;;4.47;2.72;;;;;;;24.18;56.91;101739.94;4987375;28;20081;-62
2022/08/24 09:57:39;;;;;;;4.05;2.47;;;;;;;24.23;57.08;101734.38;4929085;29;20091;-61
2022/08/24 10:00:30;;;;;;;4.38;2.90;;;;;;;24.28;56.74;101737.88;4929679;29;20056;-61
2022/08/24 10:03:05;;;;;;;3.85;2.50;;;;;;;24.32;56.58;101738.13;4929723;29;20052;-61
2022/08/24 10:05:53;;;;;;;4.57;2.95;;;;;;;24.36;57.04;101738.34;4929831;29;20590;-61
2022/08/24 10:08:34;;;;;;;5.97;2.95;;;;;;;24.40;56.73;101734.72;4928920;29;20149;-61
2022/08/24 10:11:11;;;;;;;4.68;2.80;;;;;;;24.43;56.30;101730.56;4929834;29;20072;-61
2022/08/24 10:13:42;;;;;;;;;;;;;;;24.45;56.12;101734.66;4929576;29;20091;-62
2022/08/24 10:16:23;;;;;;;7.72;3.13;;;;;;;24.47;56.34;101732.44;4929373;29;19931;-62
2022/08/24 10:19:06;;;;;;;4.97;2.65;;;;;;;24.51;55.88;101724.44;4929464;29;20135;-61
2022/08/24 10:21:52;;;;;;;4.70;2.60;;;;;;;24.52;55.80;101715.88;4972042;28;20120;-61
2022/08/24 10:24:45;;;;;;;4.38;2.45;;;;;;;24.52;55.73;101718.63;4967616;29;20083;-61
2022/08/24 10:27:23;;;;;;;3.17;2.25;;;;;;;24.53;55.75;101717.53;4967501;28;20083;-62
2022/08/24 10:30:33;;;;;;;3.58;3.03;;;;;;;24.57;55.72;101712.25;4967928;29;20436;-61
2022/08/24 10:33:15;;;;;;;2.70;2.28;;;;;;;24.60;55.45;101706.97;4991228;28;20080;-62
2022/08/24 10:35:59;;;;;;;3.22;2.40;;;;;;;24.64;55.45;101719.03;5041890;28;20081;-61
2022/08/24 10:41:52;;;;;;;5.82;2.25;;;;;;;24.76;55.26;101709.53;4967214;29;20078;-62
2022/08/24 10:44:39;;;;;;;3.20;2.33;;;;;;;24.80;54.88;101707.81;4967282;29;20104;-61
2022/08/24 10:47:18;;;;;;;3.40;2.20;;;;;;;24.86;54.93;101709.38;4967229;29;20051;-62
2022/08/24 10:50:16;;;;;;;4.38;2.38;;;;;;;24.90;54.81;101702.19;4967888;28;20078;-61
2022/08/24 10:53:12;;;;;;;3.22;2.60;;;;;;;24.93;54.66;101702.41;4966888;29;20076;-62
2022/08/24 10:55:42;;;;;;;3.53;2.50;;;;;;;24.97;54.76;101699.91;4966520;28;20051;-61
2022/08/24 10:58:30;;;;;;;3.13;2.13;;;;;;;24.97;54.01;101699.91;4966986;29;20468;-61
2022/08/24 11:01:14;;;;;;;5.03;2.38;;;;;;;25.03;54.48;101695.16;4976555;28;20078;-61
2022/08/24 11:03:49;;;;;;;4.50;2.38;;;;;;;25.06;54.56;101692.63;4986124;28;20046;-61
2022/08/24 11:06:18;;;;;;;2.50;2.15;;;;;;;25.11;54.44;101697.22;4986284;28;20525;-61
2022/08/24 11:08:56;;;;;;;4.05;2.20;;;;;;;25.15;54.23;101696.31;4985513;28;20054;-61
2022/08/24 11:11:28;;;;;;;2.00;1.70;;;;;;;25.21;54.46;101694.31;4966868;29;20075;-61
2022/08/24 11:13:59;;;;;;;2.72;1.95;;;;;;;25.27;54.70;101691.16;4966176;29;20110;-61
2022/08/24 11:16:31;;;;;;;3.13;2.10;;;;;;;25.35;54.61;101686.09;4967213;28;20051;-61
2022/08/24 11:19:01;;;;;;;4.00;2.28;;;;;;;25.40;54.75;101686.00;5019599;28;20113;-62
2022/08/24 11:21:36;;;;;;;2.67;2.00;;;;;;;25.47;54.65;101686.44;5027335;28;20077;-62
2022/08/24 11:24:07;;;;;;;2.75;1.95;;;;;;;25.52;54.68;101681.66;5027182;28;20057;-61
2022/08/24 11:26:49;;;;;;;3.92;2.30;;;;;;;25.58;54.61;101679.63;5027008;28;20049;-61
2022/08/24 11:29:26;;;;;;;3.47;1.88;;;;;;;25.59;54.29;101681.28;5027397;28;20061;-61
2022/08/24 11:31:53;;;;;;;2.70;2.08;;;;;;;25.59;53.67;101684.84;5027241;28;20137;-61
2022/08/24 11:34:32;;;;;;;3.47;2.33;;;;;;;25.60;53.87;101675.47;5026891;28;20049;-61
2022/08/24 11:37:00;;;;;;;2.90;2.05;;;;;;;25.65;53.88;101671.03;5027203;28;20050;-62
2022/08/24 11:39:34;;;;;;;2.45;2.15;;;;;;;25.70;54.18;101679.19;5027121;28;20050;-62
2022/08/24 11:42:15;;;;;;;3.25;2.08;;;;;;;25.72;54.19;101677.75;5026755;28;20054;-61
2022/08/24 11:44:49;;;;;;;6.70;2.15;;;;;;;25.76;54.00;101673.28;5026816;28;20073;-61
2022/08/24 11:47:44;;;;;;;4.13;1.73;;;;;;;25.81;54.11;101670.44;5026618;28;20042;-62
2022/08/24 11:50:32;;;;;;;3.88;2.10;;;;;;;25.87;54.14;101673.91;5027016;28;20084;-61
2022/08/24 11:53:08;;;;;;;2.63;2.30;;;;;;;25.88;54.16;101668.09;5026611;28;20050;-61
2022/08/24 11:55:47;;;;;;;2.90;2.10;;;;;;;25.95;54.15;101675.97;5026578;28;20050;-61
2022/08/24 11:58:37;;;;;;;2.33;1.88;;;;;;;25.98;54.22;101663.50;5026404;28;20050;-62
2022/08/24 12:01:13;;;;;;;5.38;2.05;;;;;;;26.01;54.17;101669.19;5026639;28;20057;-61